Weather observations for the past three days for
Hutchinson, Hutchinson Municipal Airport-Butler Field
Metric (Imperial)
Date Time (cdt) Wind (kph) Vis. (km) Weather Sky Cond. Temperature (ºC) Relative Humidity Wind Chill (°C) Heat Index (°C) Pressure Precipitation (cm)
Air Dwpt 6 hour altimeter (cm) sea level (mb) 1 hr 3 hr 6 hr
Max. Min.
01 23:35 Calm 16.09 Fair CLR 18.5 17.4 93% 76.07 0.0
01 23:15 Calm 16.09 Fair CLR 18.5 17.7 95% 76.1 0.0
01 22:55 Calm 16.09 Fair CLR 19.3 17.7 91% 76.05 0.0
01 22:35 Calm 16.09 Fair CLR 19.6 18.7 95% 76.05 0.0
01 22:15 Calm 16.09 Fair CLR 19.5 18.6 95% 76.07 0.0
01 21:55 E 7 16.09 Fair CLR 20.1 19.3 95% 76.02 0.0
01 21:36 Calm 16.09 Fair CLR 19.5 19.1 98% 76.07 0.0
01 21:15 Calm 16.09 Fair CLR 19.8 19.2 96% 76.05 0.0
01 20:55 Calm 11.27 Fair CLR 20.5 19.3 93% 76.05 0.0
01 20:35 Calm 16.09 Fair CLR 20.5 19.5 94% 76.05 0.0
01 20:15 Calm 16.09 Partly Cloudy SCT120 21.4 19.6 90% 76.05 0.0
01 19:55 Calm 16.09 Partly Cloudy SCT120 21.6 19.3 87% 76.05 0.0
01 19:35 Calm 16.09 Fair CLR 22.6 18.7 79% 76.05 0.0
01 19:15 N 6 16.09 Fair CLR 23.4 19.6 79% 76.07 0.0
01 18:55 Calm 16.09 Fair CLR 24.2 19.9 28.7 24.2 77% 25 76.07 0.0
01 18:35 NW 9 16.09 Partly Cloudy SCT120 24.6 20.2 77% 25 76.07 0.0
01 18:15 Calm 16.09 Partly Cloudy SCT120 24.5 20.3 78% 25 76.1 0.0
01 17:55 Calm 16.09 Partly Cloudy SCT120 24.3 20.2 78% 25 76.1 0.0
01 17:35 Calm 16.09 Light Rain SCT050 SCT075 SCT100 25.2 19.7 72% 26 76.1 0.0
01 17:15 Calm 16.09 Partly Cloudy SCT120 25.1 20.7 77% 26 76.1 0.0
01 16:55 Calm 16.09 Fair CLR 25.1 20.3 75% 26 76.07 0.0
01 16:35 Calm 16.09 Fair CLR 26.6 18.3 60% 28 76.07 0.0
01 16:15 Calm 16.09 Fair CLR 26.6 18.7 62% 28 76.1 0.0
01 15:55 Calm 16.09 Fair CLR 26.8 18.7 61% 28 76.07 0.0
01 15:35 Calm 16.09 Fair CLR 27.1 18.5 59% 28 76.07 0.0
01 15:15 Calm 16.09 Fair CLR 26.4 18.3 61% 27 76.1 0.0
01 14:55 Calm 16.09 Fair CLR 27.1 16.9 54% 28 76.1 0.0
01 14:35 Calm 16.09 Fair CLR 28.5 15.5 45% 29 76.12 0.0
01 14:15 Calm 16.09 Fair CLR 28.6 16 46% 29 76.12 0.0
01 13:55 Calm 16.09 Fair CLR 28.3 15.9 47% 29 76.12 0.0
01 13:35 NE 6 16.09 Fair CLR 28.1 16.3 49% 28 76.12 0.0
01 13:15 W 6 16.09 Fair CLR 27.3 16.6 52% 28 76.12 0.0
01 12:55 Calm 16.09 Fair CLR 27.4 16.3 27.8 12.9 51% 28 76.15 0.0
01 12:35 Calm 16.09 Fair CLR 27.1 16.5 52% 28 76.17 0.0
01 12:15 Calm 16.09 Fair CLR 26.8 16.4 53% 27 76.17 0.0
01 11:55 Calm 16.09 Fair CLR 26.7 16.1 52% 27 76.17 0.0
01 11:35 Calm 16.09 Fair CLR 26.9 15.3 49% 27 76.17 0.0
01 11:15 Calm 16.09 Fair CLR 26.4 14.9 49% 27 76.17 0.0
01 10:55 NW 6 16.09 Fair CLR 25.7 16.3 56% 27 76.17 0.0
01 10:35 NW 6 16.09 Fair CLR 24 17.7 68% 25 76.17 0.0
01 10:15 N 9 16.09 Fair CLR 23.4 18.3 73% 76.17 0.0
01 09:55 NW 9 16.09 Fair CLR 23.5 18.5 74% 76.17 0.0
01 09:35 Calm 16.09 Fair CLR 22.1 18.3 79% 76.17 0.0
01 09:17 Calm 16.09 Fair CLR 21.3 17.6 80% 76.2 0.0
01 08:55 Calm 16.09 Fair CLR 20 18.2 89% 76.2 0.0
01 08:35 Calm 16.09 Fair CLR 18.3 18.1 99% 76.2 0.0
01 08:15 Calm 16.09 Fair CLR 16.5 16.2 98% 76.2 0.0
01 07:55 Calm 16.09 Fair CLR 15.1 14.9 99% 76.17 0.0
01 07:35 Calm 16.09 Fair CLR 14.5 14.2 98% 76.17 0.0
01 07:15 Calm 16.09 Fair CLR 14 13 94% 76.17 0.0
01 06:55 Calm 8.05 Fog/Mist CLR 12.9 12.7 16.1 12.5 99% 76.15 0.0
01 06:35 Calm 16.09 Fair CLR 12.8 12.6 99% 76.15 0.0
01 06:15 Calm 11.27 Fair CLR 13.2 12.9 98% 76.12 0.0
01 05:55 Calm 8.05 Fog/Mist CLR 13.3 13 98% 76.12 0.0
01 05:35 Calm 11.27 Fair CLR 14.2 13.9 98% 76.12 0.0
01 05:15 Calm 16.09 Fair CLR 13.8 13.4 97% 76.12 0.0
01 04:55 NW 6 16.09 Fair CLR 13.7 13.4 98% 76.1 0.0
01 04:35 Calm 16.09 Fair CLR 14.1 13.8 98% 76.1 0.0
01 04:15 Calm 11.27 Fair CLR 13.1 12.9 99% 76.07 0.0
01 03:55 Calm 16.09 Fair CLR 13 13 100% 76.07 0.0
01 03:35 Calm 11.27 Fair CLR 14.1 13.8 98% 76.07 0.0
01 03:15 Calm 8.05 Fog/Mist CLR 14.3 14 98% 76.07 0.0
01 02:55 Calm 16.09 Fair CLR 14.7 14.4 98% 76.07 0.0
01 02:35 Calm 11.27 Fair CLR 14.3 14 98% 76.1 0.0
01 02:15 Calm 16.09 Fair CLR 15 14.7 98% 76.1 0.0
01 01:55 Calm 11.27 Fair CLR 14.4 14 97% 76.12 0.0
01 01:35 Calm 16.09 Fair CLR 15 14.7 98% 76.12 0.0
01 01:15 Calm 11.27 Fair CLR 16.1 15.8 98% 76.12 0.0
01 00:55 Calm 16.09 Fair CLR 15.4 15.1 23.8 14.7 98% 76.12 0.0
01 00:15 Calm 6.44 Fog/Mist CLR 15.3 15 98% 76.1 0.0
31 23:55 Calm 8.05 Fog/Mist CLR 15.3 15 98% 76.1 0.0
31 23:35 Calm 16.09 Fair CLR 15.6 15.3 98% 76.07 0.0
31 23:15 Calm 16.09 Fair CLR 15.7 15.4 98% 76.07 0.0
31 22:55 Calm 2.01 Fog/Mist VV007 16.3 16 98% 76.07 0.0
31 22:35 Calm 11.27 Fair CLR 16.3 16 98% 76.07 0.0
31 22:15 Calm 8.05 Fog/Mist CLR 17 16.6 98% 76.07 0.0
31 21:55 Calm 11.27 Fair CLR 16.7 16.4 98% 76.07 0.0
31 21:35 Calm 16.09 Fair CLR 17.1 16.8 98% 76.07 0.0
31 21:15 Calm 16.09 Fair CLR 17.1 16.8 98% 76.05 0.0
31 20:55 Calm 16.09 Fair CLR 18.9 18.4 97% 76.05 0.0
31 20:35 Calm 16.09 Fair CLR 19.2 18.5 96% 76 0.0
31 20:15 Calm 16.09 Fair CLR 19.7 18.8 95% 76 0.0
31 19:55 Calm 16.09 Fair CLR 20.4 19 92% 76 0.0
31 19:35 Calm 16.09 Fair CLR 22 18.5 81% 76 0.0
31 19:15 Calm 16.09 Fair CLR 22.8 18.4 76% 76 0.0
31 18:55 W 9 16.09 Fair CLR 24.2 18.4 28.6 24.2 70% 25 76.02 0.0
31 18:35 W 7 16.09 Fair CLR 25 19 69% 26 76 0.0
31 18:15 W 7 16.09 Fair CLR 25.8 18.2 63% 27 76.02 0.0
31 17:35 W 9 16.09 Fair CLR 27.3 18.4 58% 28 76 0.0
31 17:15 W 11 16.09 Fair CLR 26.7 18.2 60% 28 76 0.0
31 16:55 W 13 16.09 Fair CLR 27.6 18.6 58% 29 76 0.0
31 16:35 W 11 16.09 Fair CLR 26.7 19 63% 28 76 0.0
31 16:15 W 9 16.09 Fair CLR 27.2 18 57% 28 75.97 0.0
31 15:55 W 11 16.09 Fair CLR 28.4 18.7 56% 30 76 0.0
31 15:35 NW 9 16.09 Fair CLR 28.3 16.6 49% 29 75.97 0.0
31 15:15 N 11 16.09 Fair CLR 28 17.2 52% 29 75.97 0.0
31 14:55 W 6 16.09 Fair CLR 28.1 17.3 52% 29 75.97 0.0
31 14:35 N 11 16.09 Fair CLR 28 17.5 53% 29 75.97 0.0
31 14:15 NW 13 16.09 Fair CLR 28.2 16.4 49% 29 75.95 0.0
31 13:55 NW 11 16.09 Fair CLR 28.2 17.3 52% 29 75.95 0.0
31 13:35 NW 13 16.09 Fair CLR 28.1 16.9 51% 29 75.95 0.0
31 13:15 N 17 16.09 Fair CLR 28.1 17.4 52% 29 75.95 0.0
31 12:55 NW 11 16.09 Fair CLR 27.8 18.5 27.8 18.5 57% 29 75.95 0.0
31 12:35 N 6 16.09 Fair CLR 27 19 62% 28 75.97 0.0
31 12:15 N 11 16.09 Fair CLR 27.1 19.9 65% 29 75.97 0.0
31 11:55 W 7 16.09 Fair CLR 26.6 20 67% 28 75.97 0.0
31 11:35 NW 9 16.09 Fair CLR 25.9 20.6 73% 27 75.97 0.0
31 11:15 N 6 16.09 Fair CLR 25 20.5 76% 26 75.95 0.0
31 10:55 NW 13 16.09 Fair CLR 24.6 19.8 75% 25 75.95 0.0
31 10:35 NW 15 16.09 Partly Cloudy SCT009 24.5 21.8 85% 25 75.92 0.0
31 09:55 W 13 16.09 Partly Cloudy SCT006 23.1 21.8 92% 75.92 0.0
31 09:35 NW 11 16.09 Partly Cloudy SCT006 23.4 21.9 91% 75.87 0.0
31 09:15 W 17 G 33 16.09 Fair CLR 23.2 22.2 94% 75.87 0.0
31 08:55 NW 11 11.27 Fair CLR 22.8 22.5 98% 75.84 0.0
31 08:35 W 6 8.05 Fog/Mist CLR 22 21.6 98% 75.79 0.0
31 08:15 Calm 8.05 Fog/Mist CLR 21.1 20.8 98% 75.77 0.0
31 07:55 Calm 8.05 Fog/Mist CLR 20.9 20.6 98% 75.77 0.0
31 07:35 W 6 4.83 Fog/Mist CLR 19.7 19.5 99% 75.74 0.0
31 07:15 Calm 2.82 Fog/Mist VV007 19 18.8 99% 75.74 0.0
31 06:55 W 6 0.80 Fog VV005 19 18 94% 75.72 0.0
31 06:35 Calm 0.24 Fog VV000 19.1 18.7 98% 75.67 0.0
31 06:15 Calm 1.21 Fog/Mist VV005 19.8 19.5 98% 75.67 0.0
31 05:55 Calm 2.82 Fog/Mist VV007 18.8 18.5 98% 75.67 0.0
31 05:35 Calm 2.41 Fog/Mist VV007 19 19 100% 75.64 0.0
31 05:15 Calm 6.44 Fog/Mist CLR 19.9 19.6 98% 75.64 0.0
31 04:55 Calm 8.05 Fog/Mist CLR 20.6 20.4 99% 75.64 0.0
31 04:35 Calm 6.44 Fog/Mist CLR 20.7 20.5 99% 75.62 0.0
31 04:15 S 6 8.05 Fog/Mist CLR 20.8 20.5 98% 75.62 0.0
31 03:55 S 6 8.05 Fog/Mist CLR 20.7 20.5 99% 75.59 0.0
31 03:35 Calm 8.05 Fog/Mist CLR 21.2 21 99% 75.62 0.0
31 03:15 S 6 11.27 Fair CLR 21.3 21 98% 75.62 0.0
31 02:55 S 6 11.27 Fair CLR 21.4 21.1 98% 75.59 0.0
31 02:35 S 6 11.27 Fair CLR 21.5 21.1 98% 75.59 0.0
31 02:15 S 6 11.27 Fair CLR 21.5 21.2 98% 75.59 0.0
31 01:55 S 6 11.27 Fair CLR 21.6 21.3 98% 75.59 0.0
31 01:35 S 7 16.09 Fair CLR 21.8 21.5 98% 75.59 0.0
31 01:15 S 9 16.09 Fair CLR 22 21.7 98% 75.59 0.0
31 00:55 SE 13 16.09 Fair CLR 22.1 21.6 27.7 22.1 97% 75.59 0.0
31 00:35 SE 11 16.09 Fair CLR 22.1 21.5 96% 75.62 0.0
31 00:15 SE 11 16.09 Fair CLR 22.1 21.5 96% 75.62 0.0
30 23:55 SE 11 16.09 Fair CLR 22.5 21.5 94% 75.64 0.0
30 23:35 SE 11 16.09 Fair CLR 22.5 21.6 95% 75.67 0.0
30 23:15 SE 15 16.09 Fair CLR 23 21.7 92% 75.67 0.0
30 22:55 SE 11 16.09 Partly Cloudy SCT043 23.1 22 94% 75.67 0.0
30 22:35 SE 15 16.09 Partly Cloudy SCT043 23 22 94% 75.67 0.0
30 22:15 SE 13 16.09 Fair CLR 23.5 22.3 93% 75.67 0.0
30 21:55 SE 13 16.09 Fair CLR 23.7 22.2 91% 75.64 0.0
30 21:35 SE 17 16.09 Fair CLR 23.8 22.3 91% 75.62 0.0
30 21:15 SE 15 16.09 Fair CLR 24 22.3 90% 24 75.62 0.0
30 20:55 SE 13 16.09 Fair CLR 24.1 22.5 91% 24 75.62 0.0
30 20:35 SE 11 16.09 Fair CLR 24 22.6 92% 23 75.62 0.0
30 20:15 SE 11 16.09 Fair CLR 24.1 22.5 91% 24 75.62 0.0
30 19:55 SE 11 16.09 Fair CLR 25 22.1 84% 26 75.62 0.0
30 19:35 SE 11 16.09 Fair CLR 25.7 22.1 81% 27 75.62 0.0
30 19:15 SE 11 16.09 Mostly Cloudy SCT033 BKN110 26.6 22.7 79% 29 75.62 0.0
30 18:55 SE 15 16.09 Mostly Cloudy BKN033 28.1 22.8 29.2 25.7 73% 31 75.59 0.0
30 18:35 SE 13 16.09 Fair CLR 28.5 23.2 73% 32 75.57 0.0
30 18:15 SE 15 16.09 Fair CLR 29 23 70% 33 75.57 0.0
30 17:55 SE 13 16.09 Fair CLR 29 23.1 71% 33 75.57 0.0
30 17:35 SE 20 16.09 Fair CLR 29.1 23.2 71% 33 75.57 0.0
30 17:15 SE 17 G 26 16.09 Fair CLR 29.1 23.5 72% 33 75.59 0.0
30 16:55 SE 17 G 26 16.09 Fair CLR 29 23.4 72% 33 75.59 0.0
30 16:35 E 19 G 26 16.09 Partly Cloudy SCT024 SCT120 28.3 23.4 75% 32 75.59 0.0
30 16:15 E 19 16.09 Fair CLR 28.5 23.1 73% 32 75.62 0.0
30 15:55 E 19 16.09 Partly Cloudy SCT022 28.2 22.9 73% 31 75.62 0.0
30 15:35 E 19 16.09 Partly Cloudy SCT022 28.6 23.2 73% 32 75.64 0.0
30 15:15 E 22 16.09 Partly Cloudy SCT022 28.2 22.8 73% 31 75.67 0.0
30 14:55 E 19 G 28 16.09 Fair CLR 28 22.5 72% 31 75.67 0.0
30 14:35 E 20 16.09 Partly Cloudy SCT019 27.5 22.5 74% 30 75.64 0.0
30 14:15 E 19 G 28 16.09 Fair CLR 27.4 22.6 75% 30 75.67 0.0
30 13:55 E 19 G 28 16.09 Partly Cloudy SCT018 26.1 21.7 77% 28 75.67 0.0
30 13:35 E 20 16.09 Partly Cloudy SCT018 26.9 22.4 76% 29 75.67 0.0
30 13:15 E 24 16.09 Overcast OVC016 26 21.8 78% 28 75.69 0.0
30 12:55 E 17 16.09 Overcast OVC014 25.7 21.8 25.9 19.3 79% 27 75.74 0.0
30 12:35 E 17 16.09 Overcast OVC014 24.9 21.7 82% 26 75.74 0.0
30 12:15 E 15 16.09 Overcast OVC012 24.2 21.3 84% 24 75.77 0.0
30 11:55 E 17 16.09 Overcast OVC012 23.1 20.9 87% 75.77 0.0
30 11:35 E 17 G 26 16.09 Mostly Cloudy BKN010 23.4 20.9 86% 75.77 0.0
30 11:15 E 15 16.09 Mostly Cloudy BKN008 23 20.6 86% 75.74 0.0
30 10:55 NE 15 16.09 Mostly Cloudy BKN008 BKN011 22.8 20.7 88% 75.72 0.0
30 10:35 E 15 16.09 Overcast OVC006 22 20.6 92% 75.72 0.0
30 10:15 E 13 16.09 Overcast OVC006 21.5 20.3 93% 75.72 0.0
30 09:55 E 9 16.09 Light Rain OVC006 21 20.2 95% 75.72 0.0
30 09:35 E 13 16.09 Mostly Cloudy BKN006 BKN080 21 20 94% 75.72 0.0
30 09:15 E 13 16.09 Partly Cloudy SCT004 21 20 94% 75.72 0.0
30 08:55 E 15 16.09 Mostly Cloudy BKN004 20.9 19.8 93% 75.72 0.0
30 08:35 E 11 16.09 Mostly Cloudy BKN004 20.6 19.6 94% 75.74 0.0
30 08:15 E 7 11.27 Partly Cloudy SCT004 19.7 19.3 98% 75.74 0.0
30 07:55 E 7 11.27 Fair CLR 19.6 19.3 98% 75.74 0.0
30 07:35 E 11 11.27 Fair CLR 19.3 19 98% 75.69 0.0
30 07:15 E 6 11.27 Fair CLR 19.3 19 98% 75.72 0.0
30 06:55 E 9 11.27 Fair CLR 19.3 19 20.3 19 98% 75.69 0.0
30 06:35 E 9 11.27 Fair CLR 19.3 19 98% 75.69 0.0
30 06:15 E 11 11.27 Fair CLR 19.1 18.8 98% 75.69 0.0
30 05:55 NE 11 11.27 Fair CLR 19.1 18.9 99% 75.69 0.0
30 05:35 E 7 11.27 Fair CLR 19 18.7 98% 75.72 0.0
30 05:15 E 6 11.27 Fair CLR 19.1 18.8 98% 75.74 0.0
30 04:55 E 9 16.09 Fair CLR 19.2 18.9 98% 75.72 0.0
30 04:35 E 9 11.27 Fair CLR 19 18.7 98% 75.72 0.0
30 04:15 NE 6 11.27 Fair CLR 19 18.7 98% 75.74 0.0
30 03:55 NE 11 16.09 Fair CLR 19.3 19 98% 75.69 0.0
30 03:35 E 7 16.09 Fair CLR 19.3 19 98% 75.72 0.0
30 03:15 E 7 16.09 Fair CLR 19.5 19.1 98% 75.72 0.0
30 02:55 E 6 16.09 Fair CLR 19.7 19.2 97% 75.72 0.0
30 02:35 E 6 16.09 Fair CLR 19.6 19.2 98% 75.74 0.0
30 02:15 E 7 16.09 Fair CLR 19.6 19.2 98% 75.74 0.0
30 01:55 NE 7 16.09 Fair CLR 20.1 19.2 95% 75.74 0.0
30 01:15 E 9 16.09 Fair CLR 20 19.5 97% 75.74 0.0
30 00:55 E 7 16.09 Fair CLR 19.8 19.5 24.7 19.8 98% 75.74 0.0
30 00:15 E 11 16.09 Fair CLR 20.6 19.5 93% 75.79 0.0
29 23:55 E 9 16.09 Fair CLR 21 19.5 91% 75.79 0.0
Date Time (cdt) Wind (kph) Vis. (km) Weather Sky Cond. Air Dwpt Max. Min. Relative Humidity Wind Chill (°C) Heat Index (°C) altimeter (cm) sea level (mb) 1 hr 3 hr 6 hr
6 hour
Temperature (ºC) Pressure Precipitation (cm)